sensor_id;sensor_type;location;lat;lon;timestamp;temperature;humidity
16172;DHT22;8192;53.596;10.166;2023-04-02T00:08:25;0.80;99.90
16172;DHT22;8192;53.596;10.166;2023-04-02T00:10:53;1.00;99.90
16172;DHT22;8192;53.596;10.166;2023-04-02T00:13:24;0.80;99.90
16172;DHT22;8192;53.596;10.166;2023-04-02T00:15:55;1.00;99.90
16172;DHT22;8192;53.596;10.166;2023-04-02T00:18:24;0.90;99.90
16172;DHT22;8192;53.596;10.166;2023-04-02T00:20:55;1.10;99.90
16172;DHT22;8192;53.596;10.166;2023-04-02T00:23:25;1.00;99.90
16172;DHT22;8192;53.596;10.166;2023-04-02T00:25:52;0.80;99.90
16172;DHT22;8192;53.596;10.166;2023-04-02T00:28:21;0.90;99.90
16172;DHT22;8192;53.596;10.166;2023-04-02T00:30:50;0.90;99.90
16172;DHT22;8192;53.596;10.166;2023-04-02T00:33:23;0.80;99.90
16172;DHT22;8192;53.596;10.166;2023-04-02T00:35:53;0.90;99.90
16172;DHT22;8192;53.596;10.166;2023-04-02T00:38:24;0.90;99.90
16172;DHT22;8192;53.596;10.166;2023-04-02T00:40:56;0.90;99.90
16172;DHT22;8192;53.596;10.166;2023-04-02T00:43:25;1.00;99.90
16172;DHT22;8192;53.596;10.166;2023-04-02T00:45:55;1.00;99.90
16172;DHT22;8192;53.596;10.166;2023-04-02T00:48:39;1.00;99.90
16172;DHT22;8192;53.596;10.166;2023-04-02T00:51:13;1.00;99.90
16172;DHT22;8192;53.596;10.166;2023-04-02T00:53:44;0.80;99.90
16172;DHT22;8192;53.596;10.166;2023-04-02T00:56:16;1.00;99.90
16172;DHT22;8192;53.596;10.166;2023-04-02T00:58:50;1.00;99.90
16172;DHT22;8192;53.596;10.166;2023-04-02T01:01:21;0.90;99.90
16172;DHT22;8192;53.596;10.166;2023-04-02T01:03:54;1.00;99.90
16172;DHT22;8192;53.596;10.166;2023-04-02T01:06:25;0.90;99.90
16172;DHT22;8192;53.596;10.166;2023-04-02T01:09:05;0.90;99.90
16172;DHT22;8192;53.596;10.166;2023-04-02T01:11:51;0.80;99.90
16172;DHT22;8192;53.596;10.166;2023-04-02T01:14:33;0.70;99.90
16172;DHT22;8192;53.596;10.166;2023-04-02T01:17:08;0.80;99.90
16172;DHT22;8192;53.596;10.166;2023-04-02T01:22:46;0.80;99.90
16172;DHT22;8192;53.596;10.166;2023-04-02T01:25:18;0.70;99.90
16172;DHT22;8192;53.596;10.166;2023-04-02T01:27:51;0.70;99.90
16172;DHT22;8192;53.596;10.166;2023-04-02T01:30:22;0.90;99.90
16172;DHT22;8192;53.596;10.166;2023-04-02T01:32:49;0.80;99.90
16172;DHT22;8192;53.596;10.166;2023-04-02T01:35:18;0.80;99.90
16172;DHT22;8192;53.596;10.166;2023-04-02T01:37:51;0.80;99.90
16172;DHT22;8192;53.596;10.166;2023-04-02T01:40:30;1.00;99.90
16172;DHT22;8192;53.596;10.166;2023-04-02T01:43:08;1.10;99.90
16172;DHT22;8192;53.596;10.166;2023-04-02T01:45:39;1.10;99.90
16172;DHT22;8192;53.596;10.166;2023-04-02T01:48:11;1.20;99.90
16172;DHT22;8192;53.596;10.166;2023-04-02T01:50:43;1.30;99.90
16172;DHT22;8192;53.596;10.166;2023-04-02T01:53:12;1.10;99.90
16172;DHT22;8192;53.596;10.166;2023-04-02T01:55:42;1.10;99.90
16172;DHT22;8192;53.596;10.166;2023-04-02T01:58:11;1.10;99.90
16172;DHT22;8192;53.596;10.166;2023-04-02T02:00:43;1.00;99.90
16172;DHT22;8192;53.596;10.166;2023-04-02T02:03:12;1.00;99.90
16172;DHT22;8192;53.596;10.166;2023-04-02T02:05:39;0.90;99.90
16172;DHT22;8192;53.596;10.166;2023-04-02T02:08:19;1.00;99.90
16172;DHT22;8192;53.596;10.166;2023-04-02T02:10:48;1.10;99.90
16172;DHT22;8192;53.596;10.166;2023-04-02T02:13:15;1.10;99.90
16172;DHT22;8192;53.596;10.166;2023-04-02T02:15:44;1.10;99.90
16172;DHT22;8192;53.596;10.166;2023-04-02T02:18:11;1.00;99.90
16172;DHT22;8192;53.596;10.166;2023-04-02T02:20:39;1.00;99.90
16172;DHT22;8192;53.596;10.166;2023-04-02T02:23:08;0.80;99.90
16172;DHT22;8192;53.596;10.166;2023-04-02T02:25:36;0.60;99.90
16172;DHT22;8192;53.596;10.166;2023-04-02T02:28:05;0.40;99.90
16172;DHT22;8192;53.596;10.166;2023-04-02T02:30:36;0.30;99.90
16172;DHT22;8192;53.596;10.166;2023-04-02T02:33:09;0.50;99.90
16172;DHT22;8192;53.596;10.166;2023-04-02T02:35:43;0.60;99.90
16172;DHT22;8192;53.596;10.166;2023-04-02T02:38:37;0.60;99.90
16172;DHT22;8192;53.596;10.166;2023-04-02T02:41:10;0.70;99.90
16172;DHT22;8192;53.596;10.166;2023-04-02T02:43:41;0.60;99.90
16172;DHT22;8192;53.596;10.166;2023-04-02T02:46:13;0.50;99.90
16172;DHT22;8192;53.596;10.166;2023-04-02T02:48:44;0.50;99.90
16172;DHT22;8192;53.596;10.166;2023-04-02T02:51:19;0.50;99.90
16172;DHT22;8192;53.596;10.166;2023-04-02T02:53:49;0.40;99.90
16172;DHT22;8192;53.596;10.166;2023-04-02T02:56:18;0.30;99.90
16172;DHT22;8192;53.596;10.166;2023-04-02T02:58:47;0.30;99.90
16172;DHT22;8192;53.596;10.166;2023-04-02T03:01:16;0.10;99.90
16172;DHT22;8192;53.596;10.166;2023-04-02T03:03:46;0.20;99.90
16172;DHT22;8192;53.596;10.166;2023-04-02T03:06:14;0.10;99.90
16172;DHT22;8192;53.596;10.166;2023-04-02T03:08:49;0.10;99.90
16172;DHT22;8192;53.596;10.166;2023-04-02T03:11:21;0.20;99.90
16172;DHT22;8192;53.596;10.166;2023-04-02T03:13:57;0.20;99.90
16172;DHT22;8192;53.596;10.166;2023-04-02T03:16:30;0.20;99.90
16172;DHT22;8192;53.596;10.166;2023-04-02T03:19:04;0.10;99.90
16172;DHT22;8192;53.596;10.166;2023-04-02T03:21:38;0.00;99.90
16172;DHT22;8192;53.596;10.166;2023-04-02T03:24:12;0.00;99.90
16172;DHT22;8192;53.596;10.166;2023-04-02T03:26:43;0.00;99.90
16172;DHT22;8192;53.596;10.166;2023-04-02T03:29:15;0.00;99.90
16172;DHT22;8192;53.596;10.166;2023-04-02T03:31:46;0.00;99.90
16172;DHT22;8192;53.596;10.166;2023-04-02T03:34:20;-0.10;99.90
16172;DHT22;8192;53.596;10.166;2023-04-02T03:36:53;-0.20;99.90
16172;DHT22;8192;53.596;10.166;2023-04-02T03:39:27;-0.30;99.90
16172;DHT22;8192;53.596;10.166;2023-04-02T03:42:01;-0.30;99.90
16172;DHT22;8192;53.596;10.166;2023-04-02T03:44:34;-0.50;99.90
16172;DHT22;8192;53.596;10.166;2023-04-02T03:47:07;-0.50;99.90
16172;DHT22;8192;53.596;10.166;2023-04-02T03:49:42;-0.50;99.90
16172;DHT22;8192;53.596;10.166;2023-04-02T03:52:14;-0.50;99.90
16172;DHT22;8192;53.596;10.166;2023-04-02T03:54:43;-0.50;99.90
16172;DHT22;8192;53.596;10.166;2023-04-02T03:57:20;-0.50;99.90
16172;DHT22;8192;53.596;10.166;2023-04-02T04:00:03;-0.60;99.90
16172;DHT22;8192;53.596;10.166;2023-04-02T04:02:39;-0.50;99.90
16172;DHT22;8192;53.596;10.166;2023-04-02T04:05:19;-0.60;99.90
16172;DHT22;8192;53.596;10.166;2023-04-02T04:07:50;-0.50;99.90
16172;DHT22;8192;53.596;10.166;2023-04-02T04:10:22;-0.40;99.90
16172;DHT22;8192;53.596;10.166;2023-04-02T04:12:53;0.00;99.90
16172;DHT22;8192;53.596;10.166;2023-04-02T04:15:25;0.20;99.90
16172;DHT22;8192;53.596;10.166;2023-04-02T04:18:00;0.20;99.90
16172;DHT22;8192;53.596;10.166;2023-04-02T04:20:34;0.20;99.90
16172;DHT22;8192;53.596;10.166;2023-04-02T04:23:12;0.30;99.90
16172;DHT22;8192;53.596;10.166;2023-04-02T04:25:42;0.40;99.90
16172;DHT22;8192;53.596;10.166;2023-04-02T04:28:18;0.60;99.90
16172;DHT22;8192;53.596;10.166;2023-04-02T04:30:51;0.70;99.90
16172;DHT22;8192;53.596;10.166;2023-04-02T04:33:21;1.20;99.90
16172;DHT22;8192;53.596;10.166;2023-04-02T05:23:35;1.40;99.90
16172;DHT22;8192;53.596;10.166;2023-04-02T05:26:07;2.00;99.90
16172;DHT22;8192;53.596;10.166;2023-04-02T05:28:42;2.00;99.90
16172;DHT22;8192;53.596;10.166;2023-04-02T05:31:13;2.10;99.90
16172;DHT22;8192;53.596;10.166;2023-04-02T05:33:44;2.10;99.90
16172;DHT22;8192;53.596;10.166;2023-04-02T05:36:19;2.20;99.90
16172;DHT22;8192;53.596;10.166;2023-04-02T05:38:50;2.20;99.90
16172;DHT22;8192;53.596;10.166;2023-04-02T05:41:23;2.20;99.90
16172;DHT22;8192;53.596;10.166;2023-04-02T05:43:58;2.30;99.90
16172;DHT22;8192;53.596;10.166;2023-04-02T05:46:30;2.30;99.90
16172;DHT22;8192;53.596;10.166;2023-04-02T05:48:59;2.40;99.90
16172;DHT22;8192;53.596;10.166;2023-04-02T05:51:34;2.40;99.90
16172;DHT22;8192;53.596;10.166;2023-04-02T05:54:05;2.50;99.90
16172;DHT22;8192;53.596;10.166;2023-04-02T05:56:42;2.70;99.90
16172;DHT22;8192;53.596;10.166;2023-04-02T05:59:16;3.00;99.90
16172;DHT22;8192;53.596;10.166;2023-04-02T06:01:46;3.30;99.90
16172;DHT22;8192;53.596;10.166;2023-04-02T06:04:21;3.30;99.90
16172;DHT22;8192;53.596;10.166;2023-04-02T06:07:02;3.40;99.90
16172;DHT22;8192;53.596;10.166;2023-04-02T06:09:38;3.50;99.90
16172;DHT22;8192;53.596;10.166;2023-04-02T06:12:25;3.50;99.90
16172;DHT22;8192;53.596;10.166;2023-04-02T06:14:54;3.50;99.90
16172;DHT22;8192;53.596;10.166;2023-04-02T06:17:21;3.70;99.90
16172;DHT22;8192;53.596;10.166;2023-04-02T06:19:50;4.20;99.90
16172;DHT22;8192;53.596;10.166;2023-04-02T06:22:22;4.60;99.90
16172;DHT22;8192;53.596;10.166;2023-04-02T06:24:56;5.00;99.90
16172;DHT22;8192;53.596;10.166;2023-04-02T06:27:25;5.60;99.90
16172;DHT22;8192;53.596;10.166;2023-04-02T06:29:57;5.50;99.90
16172;DHT22;8192;53.596;10.166;2023-04-02T06:32:25;5.10;99.90
16172;DHT22;8192;53.596;10.166;2023-04-02T06:34:56;5.00;99.90
16172;DHT22;8192;53.596;10.166;2023-04-02T06:37:53;5.60;99.90
16172;DHT22;8192;53.596;10.166;2023-04-02T06:40:38;5.80;99.90
16172;DHT22;8192;53.596;10.166;2023-04-02T06:43:14;6.20;99.90
16172;DHT22;8192;53.596;10.166;2023-04-02T06:45:45;6.30;99.90
16172;DHT22;8192;53.596;10.166;2023-04-02T06:48:16;6.30;99.90
16172;DHT22;8192;53.596;10.166;2023-04-02T06:50:47;6.30;99.90
16172;DHT22;8192;53.596;10.166;2023-04-02T06:53:35;6.50;99.90
16172;DHT22;8192;53.596;10.166;2023-04-02T06:59:15;6.30;99.90
16172;DHT22;8192;53.596;10.166;2023-04-02T07:01:47;6.10;99.90
16172;DHT22;8192;53.596;10.166;2023-04-02T07:04:15;6.40;99.90
16172;DHT22;8192;53.596;10.166;2023-04-02T07:06:57;6.70;99.90
16172;DHT22;8192;53.596;10.166;2023-04-02T07:09:25;5.80;99.90
16172;DHT22;8192;53.596;10.166;2023-04-02T07:12:01;5.30;99.90
16172;DHT22;8192;53.596;10.166;2023-04-02T07:20:45;5.80;99.90
16172;DHT22;8192;53.596;10.166;2023-04-02T07:23:12;6.00;99.90
16172;DHT22;8192;53.596;10.166;2023-04-02T07:25:40;5.70;99.90
16172;DHT22;8192;53.596;10.166;2023-04-02T07:28:36;6.00;99.90
16172;DHT22;8192;53.596;10.166;2023-04-02T07:31:13;6.30;99.90
16172;DHT22;8192;53.596;10.166;2023-04-02T07:33:41;7.00;99.90
16172;DHT22;8192;53.596;10.166;2023-04-02T07:36:14;7.40;99.90
16172;DHT22;8192;53.596;10.166;2023-04-02T07:38:42;6.70;99.90
16172;DHT22;8192;53.596;10.166;2023-04-02T07:41:10;6.70;99.90
16172;DHT22;8192;53.596;10.166;2023-04-02T07:46:52;7.30;99.90
16172;DHT22;8192;53.596;10.166;2023-04-02T07:49:20;7.30;99.90
16172;DHT22;8192;53.596;10.166;2023-04-02T07:51:57;7.40;99.90
16172;DHT22;8192;53.596;10.166;2023-04-02T07:54:26;7.30;99.90
16172;DHT22;8192;53.596;10.166;2023-04-02T07:57:01;7.00;99.90
16172;DHT22;8192;53.596;10.166;2023-04-02T07:59:28;6.40;99.90
16172;DHT22;8192;53.596;10.166;2023-04-02T08:01:55;6.30;99.90
16172;DHT22;8192;53.596;10.166;2023-04-02T08:04:24;6.20;99.90
16172;DHT22;8192;53.596;10.166;2023-04-02T08:06:52;6.00;99.90
16172;DHT22;8192;53.596;10.166;2023-04-02T08:09:23;5.60;99.90
16172;DHT22;8192;53.596;10.166;2023-04-02T08:11:51;5.30;99.90
16172;DHT22;8192;53.596;10.166;2023-04-02T08:14:18;4.90;99.90
16172;DHT22;8192;53.596;10.166;2023-04-02T08:16:48;4.80;99.90
16172;DHT22;8192;53.596;10.166;2023-04-02T08:19:21;4.90;99.90
16172;DHT22;8192;53.596;10.166;2023-04-02T08:22:14;5.20;99.90
16172;DHT22;8192;53.596;10.166;2023-04-02T08:24:44;5.40;99.90
16172;DHT22;8192;53.596;10.166;2023-04-02T08:27:13;5.50;99.90
16172;DHT22;8192;53.596;10.166;2023-04-02T08:29:53;5.60;99.90
16172;DHT22;8192;53.596;10.166;2023-04-02T08:32:21;5.80;99.90
16172;DHT22;8192;53.596;10.166;2023-04-02T08:38:13;6.30;99.90
16172;DHT22;8192;53.596;10.166;2023-04-02T08:44:17;6.40;99.90
16172;DHT22;8192;53.596;10.166;2023-04-02T08:47:01;6.00;99.90
16172;DHT22;8192;53.596;10.166;2023-04-02T08:49:31;5.90;99.90
16172;DHT22;8192;53.596;10.166;2023-04-02T08:55:30;6.10;99.90
16172;DHT22;8192;53.596;10.166;2023-04-02T08:58:05;5.90;99.90
16172;DHT22;8192;53.596;10.166;2023-04-02T09:00:39;5.90;99.90
16172;DHT22;8192;53.596;10.166;2023-04-02T09:03:09;5.70;99.90
16172;DHT22;8192;53.596;10.166;2023-04-02T09:05:42;5.80;99.90
16172;DHT22;8192;53.596;10.166;2023-04-02T09:08:17;6.00;99.90
16172;DHT22;8192;53.596;10.166;2023-04-02T09:10:52;6.20;99.90
16172;DHT22;8192;53.596;10.166;2023-04-02T09:13:23;6.30;99.90
16172;DHT22;8192;53.596;10.166;2023-04-02T09:18:59;6.60;99.90
16172;DHT22;8192;53.596;10.166;2023-04-02T09:21:33;6.70;99.90
16172;DHT22;8192;53.596;10.166;2023-04-02T09:24:03;6.50;99.90
16172;DHT22;8192;53.596;10.166;2023-04-02T09:26:32;6.30;99.90
16172;DHT22;8192;53.596;10.166;2023-04-02T09:32:08;6.20;99.90
16172;DHT22;8192;53.596;10.166;2023-04-02T09:34:39;6.20;99.90
16172;DHT22;8192;53.596;10.166;2023-04-02T09:37:12;6.20;99.90
16172;DHT22;8192;53.596;10.166;2023-04-02T09:39:39;6.30;99.90
16172;DHT22;8192;53.596;10.166;2023-04-02T09:42:25;6.20;99.90
16172;DHT22;8192;53.596;10.166;2023-04-02T09:45:11;6.30;99.90
16172;DHT22;8192;53.596;10.166;2023-04-02T09:50:37;6.40;99.30
16172;DHT22;8192;53.596;10.166;2023-04-02T09:53:27;6.40;99.30
16172;DHT22;8192;53.596;10.166;2023-04-02T09:56:11;6.50;98.40
16172;DHT22;8192;53.596;10.166;2023-04-02T09:59:03;6.30;98.20
16172;DHT22;8192;53.596;10.166;2023-04-02T10:01:32;6.20;96.90
16172;DHT22;8192;53.596;10.166;2023-04-02T10:04:02;6.20;98.10
16172;DHT22;8192;53.596;10.166;2023-04-02T10:06:33;6.50;98.70
16172;DHT22;8192;53.596;10.166;2023-04-02T10:09:20;6.70;99.00
16172;DHT22;8192;53.596;10.166;2023-04-02T10:11:53;7.00;96.90
16172;DHT22;8192;53.596;10.166;2023-04-02T10:14:26;7.00;93.90
16172;DHT22;8192;53.596;10.166;2023-04-02T10:17:00;6.80;92.10
16172;DHT22;8192;53.596;10.166;2023-04-02T10:19:34;6.60;91.80
16172;DHT22;8192;53.596;10.166;2023-04-02T10:22:05;6.70;93.30
16172;DHT22;8192;53.596;10.166;2023-04-02T10:24:37;6.80;92.70
16172;DHT22;8192;53.596;10.166;2023-04-02T10:27:17;6.90;92.40
16172;DHT22;8192;53.596;10.166;2023-04-02T10:30:19;7.20;91.70
16172;DHT22;8192;53.596;10.166;2023-04-02T10:33:02;7.30;93.50
16172;DHT22;8192;53.596;10.166;2023-04-02T10:35:40;7.10;92.40
16172;DHT22;8192;53.596;10.166;2023-04-02T10:38:41;7.00;92.50
16172;DHT22;8192;53.596;10.166;2023-04-02T10:41:29;6.80;92.30
16172;DHT22;8192;53.596;10.166;2023-04-02T10:44:12;6.90;93.00
16172;DHT22;8192;53.596;10.166;2023-04-02T10:46:50;6.80;89.50
16172;DHT22;8192;53.596;10.166;2023-04-02T10:49:28;6.60;85.70
16172;DHT22;8192;53.596;10.166;2023-04-02T10:52:06;6.80;89.70
16172;DHT22;8192;53.596;10.166;2023-04-02T10:57:37;6.80;88.90
16172;DHT22;8192;53.596;10.166;2023-04-02T11:00:13;7.00;85.80
16172;DHT22;8192;53.596;10.166;2023-04-02T11:03:12;6.90;84.70
16172;DHT22;8192;53.596;10.166;2023-04-02T11:05:46;6.80;83.30
16172;DHT22;8192;53.596;10.166;2023-04-02T11:08:19;6.90;83.30
16172;DHT22;8192;53.596;10.166;2023-04-02T11:10:51;7.20;85.70
16172;DHT22;8192;53.596;10.166;2023-04-02T11:16:34;6.80;81.30
16172;DHT22;8192;53.596;10.166;2023-04-02T11:22:26;6.90;79.70
16172;DHT22;8192;53.596;10.166;2023-04-02T11:24:55;6.80;81.40
16172;DHT22;8192;53.596;10.166;2023-04-02T11:27:27;7.00;79.00
16172;DHT22;8192;53.596;10.166;2023-04-02T11:30:04;7.00;78.50
16172;DHT22;8192;53.596;10.166;2023-04-02T11:35:55;7.40;77.80
16172;DHT22;8192;53.596;10.166;2023-04-02T11:38:48;7.30;76.00
16172;DHT22;8192;53.596;10.166;2023-04-02T11:44:27;7.20;74.10
16172;DHT22;8192;53.596;10.166;2023-04-02T11:47:31;7.20;71.60
16172;DHT22;8192;53.596;10.166;2023-04-02T11:50:04;7.30;73.00
16172;DHT22;8192;53.596;10.166;2023-04-02T11:52:53;7.50;71.00
16172;DHT22;8192;53.596;10.166;2023-04-02T11:55:29;7.60;66.80
16172;DHT22;8192;53.596;10.166;2023-04-02T12:01:52;7.40;68.70
16172;DHT22;8192;53.596;10.166;2023-04-02T12:17:29;7.60;64.50
16172;DHT22;8192;53.596;10.166;2023-04-02T12:20:25;7.40;64.60
16172;DHT22;8192;53.596;10.166;2023-04-02T12:23:05;7.50;63.20
16172;DHT22;8192;53.596;10.166;2023-04-02T12:25:55;7.60;64.00
16172;DHT22;8192;53.596;10.166;2023-04-02T12:28:23;7.40;62.30
16172;DHT22;8192;53.596;10.166;2023-04-02T12:31:03;7.30;62.70
16172;DHT22;8192;53.596;10.166;2023-04-02T12:33:33;7.30;61.30
16172;DHT22;8192;53.596;10.166;2023-04-02T12:36:05;7.40;60.90
16172;DHT22;8192;53.596;10.166;2023-04-02T12:38:41;7.30;60.60
16172;DHT22;8192;53.596;10.166;2023-04-02T12:41:19;7.30;59.70
16172;DHT22;8192;53.596;10.166;2023-04-02T12:43:56;7.30;60.00
16172;DHT22;8192;53.596;10.166;2023-04-02T12:46:25;7.30;59.70
16172;DHT22;8192;53.596;10.166;2023-04-02T12:48:54;7.30;60.50
16172;DHT22;8192;53.596;10.166;2023-04-02T12:51:23;7.40;61.40
16172;DHT22;8192;53.596;10.166;2023-04-02T12:57:34;7.60;62.70
16172;DHT22;8192;53.596;10.166;2023-04-02T13:00:30;7.60;60.90
16172;DHT22;8192;53.596;10.166;2023-04-02T13:03:27;7.70;61.40
16172;DHT22;8192;53.596;10.166;2023-04-02T13:05:56;7.50;59.90
16172;DHT22;8192;53.596;10.166;2023-04-02T13:08:28;7.40;61.20
16172;DHT22;8192;53.596;10.166;2023-04-02T13:11:32;7.60;62.00
16172;DHT22;8192;53.596;10.166;2023-04-02T13:17:38;7.70;59.90
16172;DHT22;8192;53.596;10.166;2023-04-02T13:23:32;7.80;61.70
16172;DHT22;8192;53.596;10.166;2023-04-02T13:26:14;8.30;63.00
16172;DHT22;8192;53.596;10.166;2023-04-02T13:28:53;8.10;60.60
16172;DHT22;8192;53.596;10.166;2023-04-02T13:31:20;8.00;60.10
16172;DHT22;8192;53.596;10.166;2023-04-02T13:33:48;7.90;61.40
16172;DHT22;8192;53.596;10.166;2023-04-02T13:36:15;7.70;61.90
16172;DHT22;8192;53.596;10.166;2023-04-02T13:38:45;7.90;62.50
16172;DHT22;8192;53.596;10.166;2023-04-02T13:41:19;7.80;60.80
16172;DHT22;8192;53.596;10.166;2023-04-02T13:43:50;7.70;60.40
16172;DHT22;8192;53.596;10.166;2023-04-02T13:49:39;7.30;60.70
16172;DHT22;8192;53.596;10.166;2023-04-02T13:52:11;7.20;62.40
16172;DHT22;8192;53.596;10.166;2023-04-02T13:54:47;7.10;61.70
16172;DHT22;8192;53.596;10.166;2023-04-02T13:57:18;7.20;63.20
16172;DHT22;8192;53.596;10.166;2023-04-02T13:59:49;7.40;62.60
16172;DHT22;8192;53.596;10.166;2023-04-02T14:05:58;7.80;63.60
16172;DHT22;8192;53.596;10.166;2023-04-02T14:08:50;8.30;63.80
16172;DHT22;8192;53.596;10.166;2023-04-02T14:11:39;8.10;60.70
16172;DHT22;8192;53.596;10.166;2023-04-02T14:14:22;8.20;62.30
16172;DHT22;8192;53.596;10.166;2023-04-02T14:17:06;8.60;65.00
16172;DHT22;8192;53.596;10.166;2023-04-02T14:20:00;8.30;62.60
16172;DHT22;8192;53.596;10.166;2023-04-02T14:22:43;7.90;61.50
16172;DHT22;8192;53.596;10.166;2023-04-02T14:28:45;8.20;60.00
16172;DHT22;8192;53.596;10.166;2023-04-02T14:31:28;8.60;61.00
16172;DHT22;8192;53.596;10.166;2023-04-02T14:37:30;8.00;61.30
16172;DHT22;8192;53.596;10.166;2023-04-02T14:40:20;7.60;59.80
16172;DHT22;8192;53.596;10.166;2023-04-02T14:53:13;8.00;62.10
16172;DHT22;8192;53.596;10.166;2023-04-02T14:55:43;7.70;59.70
16172;DHT22;8192;53.596;10.166;2023-04-02T14:58:15;7.50;61.00
16172;DHT22;8192;53.596;10.166;2023-04-02T15:00:50;7.70;59.70
16172;DHT22;8192;53.596;10.166;2023-04-02T15:03:22;7.90;59.50
16172;DHT22;8192;53.596;10.166;2023-04-02T15:05:54;7.60;60.30
16172;DHT22;8192;53.596;10.166;2023-04-02T15:09:01;7.40;62.50
16172;DHT22;8192;53.596;10.166;2023-04-02T15:11:34;7.50;65.20
16172;DHT22;8192;53.596;10.166;2023-04-02T15:14:06;7.90;63.10
16172;DHT22;8192;53.596;10.166;2023-04-02T15:16:37;7.60;62.20
16172;DHT22;8192;53.596;10.166;2023-04-02T15:19:10;7.10;61.90
16172;DHT22;8192;53.596;10.166;2023-04-02T15:24:47;7.10;62.70
16172;DHT22;8192;53.596;10.166;2023-04-02T15:27:26;7.80;63.40
16172;DHT22;8192;53.596;10.166;2023-04-02T15:30:02;7.60;59.20
16172;DHT22;8192;53.596;10.166;2023-04-02T15:32:36;7.60;58.70
16172;DHT22;8192;53.596;10.166;2023-04-02T15:35:18;7.60;59.40
16172;DHT22;8192;53.596;10.166;2023-04-02T15:37:57;7.30;58.00
16172;DHT22;8192;53.596;10.166;2023-04-02T15:40:48;7.20;59.20
16172;DHT22;8192;53.596;10.166;2023-04-02T15:43:21;7.40;58.60
16172;DHT22;8192;53.596;10.166;2023-04-02T15:45:56;7.00;58.70
16172;DHT22;8192;53.596;10.166;2023-04-02T15:48:33;7.10;59.70
16172;DHT22;8192;53.596;10.166;2023-04-02T15:51:12;7.40;59.20
16172;DHT22;8192;53.596;10.166;2023-04-02T15:53:47;7.50;58.70
16172;DHT22;8192;53.596;10.166;2023-04-02T15:56:24;7.60;57.10
16172;DHT22;8192;53.596;10.166;2023-04-02T15:59:36;7.60;56.90
16172;DHT22;8192;53.596;10.166;2023-04-02T16:02:25;7.30;57.40
16172;DHT22;8192;53.596;10.166;2023-04-02T16:04:57;7.00;55.30
16172;DHT22;8192;53.596;10.166;2023-04-02T16:07:56;6.80;55.40
16172;DHT22;8192;53.596;10.166;2023-04-02T16:10:31;6.70;54.30
16172;DHT22;8192;53.596;10.166;2023-04-02T16:13:00;6.50;54.60
16172;DHT22;8192;53.596;10.166;2023-04-02T16:15:42;6.40;55.70
16172;DHT22;8192;53.596;10.166;2023-04-02T16:18:15;6.40;54.10
16172;DHT22;8192;53.596;10.166;2023-04-02T16:20:45;6.20;53.50
16172;DHT22;8192;53.596;10.166;2023-04-02T16:23:14;6.20;54.30
16172;DHT22;8192;53.596;10.166;2023-04-02T16:25:46;6.30;54.60
16172;DHT22;8192;53.596;10.166;2023-04-02T16:28:28;6.10;52.90
16172;DHT22;8192;53.596;10.166;2023-04-02T16:31:01;6.10;53.10
16172;DHT22;8192;53.596;10.166;2023-04-02T16:33:37;6.10;54.00
16172;DHT22;8192;53.596;10.166;2023-04-02T16:36:16;6.20;54.70
16172;DHT22;8192;53.596;10.166;2023-04-02T16:38:54;6.00;54.80
16172;DHT22;8192;53.596;10.166;2023-04-02T16:41:34;6.10;54.30
16172;DHT22;8192;53.596;10.166;2023-04-02T16:44:19;6.00;53.30
16172;DHT22;8192;53.596;10.166;2023-04-02T16:46:57;6.00;54.70
16172;DHT22;8192;53.596;10.166;2023-04-02T16:49:32;5.90;55.30
16172;DHT22;8192;53.596;10.166;2023-04-02T16:52:25;5.70;55.60
16172;DHT22;8192;53.596;10.166;2023-04-02T16:55:05;5.70;56.30
16172;DHT22;8192;53.596;10.166;2023-04-02T16:57:38;5.50;56.80
16172;DHT22;8192;53.596;10.166;2023-04-02T17:00:17;5.30;57.00
16172;DHT22;8192;53.596;10.166;2023-04-02T17:02:55;5.30;57.70
16172;DHT22;8192;53.596;10.166;2023-04-02T17:05:29;5.20;58.00
16172;DHT22;8192;53.596;10.166;2023-04-02T17:08:10;5.10;58.10
16172;DHT22;8192;53.596;10.166;2023-04-02T17:10:47;5.10;58.40
16172;DHT22;8192;53.596;10.166;2023-04-02T17:13:21;5.00;58.40
16172;DHT22;8192;53.596;10.166;2023-04-02T17:15:58;5.00;59.00
16172;DHT22;8192;53.596;10.166;2023-04-02T17:18:27;4.90;59.10
16172;DHT22;8192;53.596;10.166;2023-04-02T17:20:57;4.90;59.30
16172;DHT22;8192;53.596;10.166;2023-04-02T17:23:27;4.80;59.20
16172;DHT22;8192;53.596;10.166;2023-04-02T17:25:58;4.80;59.60
16172;DHT22;8192;53.596;10.166;2023-04-02T17:28:30;4.70;60.40
16172;DHT22;8192;53.596;10.166;2023-04-02T17:31:05;4.60;61.10
16172;DHT22;8192;53.596;10.166;2023-04-02T17:33:36;4.50;60.70
16172;DHT22;8192;53.596;10.166;2023-04-02T17:39:09;4.40;60.90
16172;DHT22;8192;53.596;10.166;2023-04-02T17:41:41;4.30;60.60
16172;DHT22;8192;53.596;10.166;2023-04-02T17:44:27;4.30;61.20
16172;DHT22;8192;53.596;10.166;2023-04-02T17:47:07;4.20;62.30
16172;DHT22;8192;53.596;10.166;2023-04-02T17:49:48;4.00;64.60
16172;DHT22;8192;53.596;10.166;2023-04-02T17:52:22;3.90;66.30
16172;DHT22;8192;53.596;10.166;2023-04-02T17:54:57;3.80;68.30
16172;DHT22;8192;53.596;10.166;2023-04-02T17:57:38;3.80;70.20
16172;DHT22;8192;53.596;10.166;2023-04-02T18:00:31;3.80;69.60
16172;DHT22;8192;53.596;10.166;2023-04-02T18:06:13;3.60;70.80
16172;DHT22;8192;53.596;10.166;2023-04-02T18:08:46;3.60;69.10
16172;DHT22;8192;53.596;10.166;2023-04-02T18:11:33;3.60;68.40
16172;DHT22;8192;53.596;10.166;2023-04-02T18:14:09;3.40;68.20
16172;DHT22;8192;53.596;10.166;2023-04-02T18:16:55;3.50;68.30
16172;DHT22;8192;53.596;10.166;2023-04-02T18:19:31;3.30;68.70
16172;DHT22;8192;53.596;10.166;2023-04-02T18:22:07;3.20;69.30
16172;DHT22;8192;53.596;10.166;2023-04-02T18:24:58;3.10;71.80
16172;DHT22;8192;53.596;10.166;2023-04-02T18:27:41;2.90;73.10
16172;DHT22;8192;53.596;10.166;2023-04-02T18:30:17;2.80;75.30
16172;DHT22;8192;53.596;10.166;2023-04-02T18:32:59;2.80;77.30
16172;DHT22;8192;53.596;10.166;2023-04-02T18:35:34;2.70;78.10
16172;DHT22;8192;53.596;10.166;2023-04-02T18:38:18;2.50;80.00
16172;DHT22;8192;53.596;10.166;2023-04-02T18:41:19;2.40;82.30
16172;DHT22;8192;53.596;10.166;2023-04-02T18:43:58;2.30;86.10
16172;DHT22;8192;53.596;10.166;2023-04-02T18:46:34;2.40;87.60
16172;DHT22;8192;53.596;10.166;2023-04-02T18:49:17;2.40;86.10
16172;DHT22;8192;53.596;10.166;2023-04-02T18:51:51;2.30;83.60
16172;DHT22;8192;53.596;10.166;2023-04-02T18:54:24;2.40;79.60
16172;DHT22;8192;53.596;10.166;2023-04-02T18:56:53;2.50;78.30
16172;DHT22;8192;53.596;10.166;2023-04-02T18:59:31;2.50;76.40
16172;DHT22;8192;53.596;10.166;2023-04-02T19:02:14;2.40;77.60
16172;DHT22;8192;53.596;10.166;2023-04-02T19:04:52;2.20;77.60
16172;DHT22;8192;53.596;10.166;2023-04-02T19:07:26;2.20;77.80
16172;DHT22;8192;53.596;10.166;2023-04-02T19:09:55;2.20;78.00
16172;DHT22;8192;53.596;10.166;2023-04-02T19:12:25;2.10;79.20
16172;DHT22;8192;53.596;10.166;2023-04-02T19:14:52;2.00;81.00
16172;DHT22;8192;53.596;10.166;2023-04-02T19:17:25;2.00;81.90
16172;DHT22;8192;53.596;10.166;2023-04-02T19:20:01;2.10;82.40
16172;DHT22;8192;53.596;10.166;2023-04-02T19:22:38;2.20;82.30